createdAt,value
2019-01-09T00:02:04.565Z,21.70
2019-01-09T00:04:49.865Z,25.27
2019-01-09T00:07:35.180Z,19.57
2019-01-09T00:10:20.412Z,19.80
2019-01-09T00:13:05.730Z,23.53
2019-01-09T00:15:50.914Z,21.03
2019-01-09T00:18:35.996Z,24.33
2019-01-09T00:21:21.407Z,14.80
2019-01-09T00:24:06.580Z,14.47
2019-01-09T00:26:53.507Z,17.93
2019-01-09T00:29:38.546Z,16.73
2019-01-09T00:32:23.414Z,16.27
2019-01-09T00:35:09.261Z,15.13
2019-01-09T00:37:54.053Z,15.23
2019-01-09T00:40:39.329Z,17.63
2019-01-09T00:43:24.740Z,16.80
2019-01-09T00:46:09.909Z,20.10
2019-01-09T00:48:55.191Z,33.57
2019-01-09T00:51:40.379Z,18.00
2019-01-09T00:54:25.781Z,17.90
2019-01-09T00:57:11.021Z,18.80
2019-01-09T00:59:56.289Z,16.97
2019-01-09T01:03:08.055Z,16.77
2019-01-09T01:06:00.018Z,17.20
2019-01-09T01:09:00.694Z,15.10
2019-01-09T01:11:52.486Z,15.37
2019-01-09T01:14:49.756Z,16.40
2019-01-09T01:17:38.685Z,21.53
2019-01-09T01:20:45.144Z,18.57
2019-01-09T01:23:50.758Z,22.13
2019-01-09T01:26:45.777Z,20.80
2019-01-09T01:29:43.629Z,20.33
2019-01-09T01:32:53.857Z,22.80
2019-01-09T01:35:59.993Z,22.77
2019-01-09T01:39:04.733Z,21.73
2019-01-09T01:42:08.153Z,20.13
2019-01-09T01:45:16.577Z,22.13
2019-01-09T01:48:20.827Z,23.10
2019-01-09T01:51:27.585Z,20.50
2019-01-09T01:54:37.357Z,22.23
2019-01-09T01:58:01.120Z,18.23
2019-01-09T02:01:06.768Z,19.77
2019-01-09T02:03:58.480Z,17.67
2019-01-09T02:06:56.298Z,16.73
2019-01-09T02:09:54.409Z,13.93
2019-01-09T02:12:49.112Z,16.90
2019-01-09T02:15:49.750Z,16.73
2019-01-09T02:18:47.988Z,21.47
2019-01-09T02:21:36.555Z,20.47
2019-01-09T02:24:31.222Z,16.07
2019-01-09T02:27:26.019Z,21.93
2019-01-09T02:30:32.065Z,23.77
2019-01-09T02:33:17.005Z,27.37
2019-01-09T02:36:01.811Z,25.17
2019-01-09T02:38:46.979Z,23.33
2019-01-09T02:41:31.682Z,21.90
2019-01-09T02:44:16.828Z,21.97
2019-01-09T02:47:01.662Z,20.00
2019-01-09T02:49:47.605Z,20.87
2019-01-09T02:52:33.253Z,13.53
2019-01-09T02:55:18.530Z,14.60
2019-01-09T02:58:05.315Z,16.87
2019-01-09T03:00:50.383Z,14.90
2019-01-09T03:03:35.296Z,18.07
2019-01-09T03:06:23.189Z,15.20
2019-01-09T03:09:07.386Z,15.83
2019-01-09T03:11:52.447Z,13.87
2019-01-09T03:14:37.272Z,17.77
2019-01-09T03:17:22.560Z,15.63
2019-01-09T03:20:08.090Z,16.40
2019-01-09T03:22:53.077Z,14.50
2019-01-09T03:25:37.771Z,16.93
2019-01-09T03:28:22.897Z,18.93
2019-01-09T03:31:07.643Z,15.37
2019-01-09T03:33:53.119Z,12.80
2019-01-09T03:36:38.210Z,13.50
2019-01-09T03:39:23.426Z,17.33
2019-01-09T03:42:08.164Z,15.33
2019-01-09T03:44:52.803Z,18.83
2019-01-09T03:47:37.633Z,15.57
2019-01-09T03:50:22.744Z,19.93
2019-01-09T03:53:07.709Z,17.97
2019-01-09T03:55:52.660Z,19.90
2019-01-09T03:58:37.563Z,12.73
2019-01-09T04:01:22.683Z,16.27
2019-01-09T04:04:07.442Z,12.57
2019-01-09T04:06:52.965Z,12.10
2019-01-09T04:09:38.662Z,11.37
2019-01-09T04:12:23.840Z,11.83
2019-01-09T04:15:09.068Z,12.80
2019-01-09T04:17:54.368Z,12.63
2019-01-09T04:20:39.182Z,12.53
2019-01-09T04:23:24.872Z,12.17
2019-01-09T04:26:10.126Z,11.47
2019-01-09T04:28:55.731Z,10.97
2019-01-09T04:31:40.615Z,12.63
2019-01-09T04:34:25.366Z,12.67
2019-01-09T04:37:10.536Z,11.50
2019-01-09T04:39:55.744Z,14.00
2019-01-09T04:42:40.524Z,13.67
2019-01-09T04:45:25.871Z,11.50
2019-01-09T04:48:11.082Z,12.63
2019-01-09T04:50:55.797Z,10.67
2019-01-09T04:53:40.912Z,10.47
2019-01-09T04:56:25.648Z,13.40
2019-01-09T04:59:10.987Z,12.27
2019-01-09T05:01:56.267Z,11.00
2019-01-09T05:04:41.695Z,13.00
2019-01-09T05:07:26.854Z,12.33
2019-01-09T05:10:12.194Z,17.33
2019-01-09T05:12:57.272Z,20.87
2019-01-09T05:15:41.977Z,22.43
2019-01-09T05:18:27.112Z,21.57
2019-01-09T05:21:11.898Z,21.77
2019-01-09T05:23:57.105Z,13.60
2019-01-09T05:26:41.879Z,13.10
2019-01-09T05:29:26.607Z,14.73
2019-01-09T05:32:11.403Z,15.77
2019-01-09T05:34:55.989Z,20.20
2019-01-09T05:37:40.789Z,20.57
2019-01-09T05:40:25.912Z,20.30
2019-01-09T05:43:31.125Z,28.53
2019-01-09T05:46:16.191Z,21.57
2019-01-09T05:49:01.167Z,17.27
2019-01-09T05:51:46.269Z,21.57
2019-01-09T05:54:30.966Z,29.67
2019-01-09T05:57:16.332Z,27.17
2019-01-09T06:00:01.759Z,24.47
2019-01-09T06:02:46.846Z,20.93
2019-01-09T06:05:32.051Z,27.70
2019-01-09T06:08:17.196Z,28.17
2019-01-09T06:11:01.862Z,27.20
2019-01-09T06:13:47.032Z,21.67
2019-01-09T06:16:31.928Z,23.40
2019-01-09T06:19:16.710Z,25.17
2019-01-09T06:22:01.595Z,21.27
2019-01-09T06:24:46.764Z,18.03
2019-01-09T06:27:31.550Z,23.43
2019-01-09T06:30:16.171Z,20.20
2019-01-09T06:33:00.878Z,20.37
2019-01-09T06:35:45.965Z,29.90
2019-01-09T06:38:30.713Z,24.67
2019-01-09T06:41:16.127Z,26.17
2019-01-09T06:44:01.319Z,22.07
2019-01-09T06:46:46.416Z,19.57
2019-01-09T06:49:31.636Z,20.40
2019-01-09T06:52:16.700Z,19.73
2019-01-09T06:55:02.106Z,14.60
2019-01-09T06:57:46.816Z,20.20
2019-01-09T07:00:31.660Z,20.67
2019-01-09T07:03:18.937Z,19.10
2019-01-09T07:06:04.466Z,29.67
2019-01-09T07:08:49.180Z,27.07
2019-01-09T07:11:34.017Z,29.13
2019-01-09T07:14:18.903Z,33.47
2019-01-09T07:17:04.190Z,36.67
2019-01-09T07:19:49.573Z,41.03
2019-01-09T07:22:34.277Z,41.37
2019-01-09T07:25:19.145Z,41.73
2019-01-09T07:28:03.922Z,48.17
2019-01-09T07:30:49.153Z,44.90
2019-01-09T07:33:34.441Z,50.20
2019-01-09T07:36:19.453Z,50.43
2019-01-09T07:39:05.399Z,46.40
2019-01-09T07:41:50.353Z,49.50
2019-01-09T07:44:35.231Z,59.17
2019-01-09T07:47:20.584Z,56.30
2019-01-09T07:50:07.448Z,63.67
2019-01-09T07:52:52.636Z,74.83
2019-01-09T07:55:37.904Z,70.83
2019-01-09T07:58:23.164Z,74.10
2019-01-09T08:01:08.198Z,72.07
2019-01-09T08:03:53.895Z,74.27
2019-01-09T08:06:39.154Z,67.13
2019-01-09T08:09:24.587Z,66.87
2019-01-09T08:12:09.574Z,72.00
2019-01-09T08:14:55.078Z,77.77
2019-01-09T08:17:40.064Z,71.00
2019-01-09T08:20:25.397Z,71.53
2019-01-09T08:23:10.591Z,65.93
2019-01-09T08:25:55.979Z,66.63
2019-01-09T08:28:41.049Z,70.93
2019-01-09T08:31:26.770Z,75.07
2019-01-09T08:34:11.663Z,77.30
2019-01-09T08:36:56.347Z,75.43
2019-01-09T08:39:41.111Z,73.90
2019-01-09T08:42:26.344Z,75.33
2019-01-09T08:45:11.106Z,69.83
2019-01-09T08:47:56.624Z,63.97
2019-01-09T08:50:41.813Z,68.80
2019-01-09T08:53:26.892Z,58.33
2019-01-09T08:56:11.878Z,71.43
2019-01-09T08:58:57.076Z,68.03
2019-01-09T09:01:41.922Z,56.60
2019-01-09T09:04:27.262Z,58.60
2019-01-09T09:07:12.132Z,59.93
2019-01-09T09:09:57.450Z,64.27
2019-01-09T09:12:42.077Z,62.13
2019-01-09T09:15:27.421Z,54.03
2019-01-09T09:18:12.126Z,54.23
2019-01-09T09:20:57.161Z,56.80
2019-01-09T09:23:41.999Z,63.17
2019-01-09T09:26:27.165Z,64.13
2019-01-09T09:29:11.929Z,78.27
2019-01-09T09:31:57.137Z,70.57
2019-01-09T09:34:42.175Z,56.37
2019-01-09T09:37:27.132Z,68.60
2019-01-09T09:40:15.803Z,74.07
2019-01-09T09:43:00.674Z,74.03
2019-01-09T09:45:45.372Z,70.57
2019-01-09T09:48:30.706Z,75.40
2019-01-09T09:51:15.488Z,69.73
2019-01-09T09:54:00.256Z,70.83
2019-01-09T09:56:44.968Z,70.00
2019-01-09T09:59:29.705Z,70.23
2019-01-09T10:02:14.499Z,79.80
2019-01-09T10:04:59.848Z,84.27
2019-01-09T10:07:45.431Z,80.83
2019-01-09T10:10:30.355Z,82.67
2019-01-09T10:13:15.370Z,85.23
2019-01-09T10:16:01.197Z,89.80
2019-01-09T10:18:46.767Z,103.33
2019-01-09T10:21:31.851Z,111.23
2019-01-09T10:24:17.137Z,104.20
2019-01-09T10:27:01.925Z,116.87
2019-01-09T10:29:46.669Z,110.70
2019-01-09T10:32:31.945Z,124.47
2019-01-09T10:35:16.764Z,127.17
2019-01-09T10:38:01.890Z,125.97
2019-01-09T10:40:46.657Z,131.13
2019-01-09T10:43:31.875Z,123.17
2019-01-09T10:46:16.743Z,123.73
2019-01-09T10:49:02.002Z,136.10
2019-01-09T10:51:46.946Z,123.77
2019-01-09T10:54:32.209Z,125.73
2019-01-09T10:57:17.354Z,128.47
2019-01-09T11:00:05.902Z,127.07
2019-01-09T11:02:50.870Z,131.47
2019-01-09T11:05:36.271Z,132.67
2019-01-09T11:08:21.452Z,139.90
2019-01-09T11:11:06.199Z,131.93
2019-01-09T11:13:50.969Z,121.27
2019-01-09T11:16:36.103Z,132.23
2019-01-09T11:19:20.993Z,135.03
2019-01-09T11:22:06.159Z,135.53
2019-01-09T11:24:51.043Z,143.33
2019-01-09T11:27:35.659Z,140.73
2019-01-09T11:30:20.615Z,141.27
2019-01-09T11:33:05.769Z,138.43
2019-01-09T11:35:51.755Z,152.00
2019-01-09T11:38:36.650Z,155.80
2019-01-09T11:41:21.934Z,157.03
2019-01-09T11:44:07.182Z,152.13
2019-01-09T11:46:53.878Z,145.03
2019-01-09T11:49:38.947Z,148.10
2019-01-09T11:52:24.545Z,146.80
2019-01-09T11:55:11.201Z,138.83
2019-01-09T11:57:56.461Z,146.20
2019-01-09T12:00:42.764Z,162.53
2019-01-09T12:03:28.014Z,158.07
2019-01-09T12:06:13.306Z,170.20
2019-01-09T12:09:04.501Z,170.07
2019-01-09T12:11:45.654Z,164.00
2019-01-09T12:14:30.524Z,181.70
2019-01-09T12:17:16.019Z,169.33
2019-01-09T12:20:00.835Z,175.90
2019-01-09T12:22:46.649Z,215.20
2019-01-09T12:25:32.076Z,191.00
2019-01-09T12:28:17.537Z,191.13
2019-01-09T12:31:02.425Z,220.53
2019-01-09T12:33:47.571Z,222.70
2019-01-09T12:36:32.320Z,230.70
2019-01-09T12:39:17.481Z,229.80
2019-01-09T12:42:02.277Z,222.93
2019-01-09T12:44:47.734Z,191.57
2019-01-09T12:47:33.235Z,219.70
2019-01-09T12:50:21.276Z,197.90
2019-01-09T12:53:06.080Z,194.63
2019-01-09T12:55:51.316Z,215.43
2019-01-09T12:58:36.294Z,215.37
2019-01-09T13:01:21.582Z,188.87
2019-01-09T13:04:07.576Z,175.47
2019-01-09T13:06:52.620Z,194.27
2019-01-09T13:09:37.563Z,172.87
2019-01-09T13:12:22.820Z,173.33
2019-01-09T13:15:09.371Z,189.23
2019-01-09T13:17:54.531Z,201.20
2019-01-09T13:20:39.719Z,172.33
2019-01-09T13:23:25.225Z,195.63
2019-01-09T13:26:10.631Z,184.57
2019-01-09T13:28:56.037Z,203.03
2019-01-09T13:31:41.585Z,217.97
2019-01-09T13:34:26.669Z,198.17
2019-01-09T13:37:11.486Z,225.77
2019-01-09T13:39:56.582Z,226.10
2019-01-09T13:42:41.579Z,227.93
2019-01-09T13:45:26.739Z,211.50
2019-01-09T13:48:11.614Z,196.47
2019-01-09T13:50:57.092Z,216.70
2019-01-09T13:53:42.128Z,239.13
2019-01-09T13:56:26.866Z,214.30
2019-01-09T13:59:12.280Z,191.83
2019-01-09T14:01:57.344Z,191.67
2019-01-09T14:04:42.144Z,172.40
2019-01-09T14:07:27.401Z,194.13
2019-01-09T14:10:18.251Z,192.07
2019-01-09T14:13:03.548Z,193.87
2019-01-09T14:15:48.704Z,203.10
2019-01-09T14:18:33.425Z,216.90
2019-01-09T14:21:18.300Z,215.27
2019-01-09T14:24:03.390Z,198.43
2019-01-09T14:26:48.625Z,211.90
2019-01-09T14:29:33.980Z,195.23
2019-01-09T14:32:19.543Z,192.63
2019-01-09T14:35:06.709Z,216.03
2019-01-09T14:37:52.011Z,219.23
2019-01-09T14:40:37.312Z,194.37
2019-01-09T14:43:22.270Z,226.03
2019-01-09T14:46:07.683Z,223.93
2019-01-09T14:48:53.090Z,215.87
2019-01-09T14:51:43.110Z,214.50
2019-01-09T14:54:25.065Z,199.57
2019-01-09T14:57:10.260Z,177.47
2019-01-09T14:59:55.754Z,205.73
2019-01-09T15:02:43.154Z,197.50
2019-01-09T15:05:28.395Z,182.90
2019-01-09T15:08:13.775Z,184.43
2019-01-09T15:10:58.748Z,186.03
2019-01-09T15:13:44.240Z,183.90
2019-01-09T15:16:29.433Z,193.93
2019-01-09T15:19:15.227Z,194.73
2019-01-09T15:21:59.935Z,186.50
2019-01-09T15:24:45.053Z,200.03
2019-01-09T15:27:29.965Z,193.30
2019-01-09T15:30:22.359Z,219.97
2019-01-09T15:33:07.879Z,216.57
2019-01-09T15:35:53.095Z,197.27
2019-01-09T15:38:37.794Z,197.10
2019-01-09T15:41:23.209Z,202.77
2019-01-09T15:44:08.188Z,206.90
2019-01-09T15:46:53.356Z,204.40
2019-01-09T15:49:38.568Z,173.07
2019-01-09T15:52:23.842Z,193.17
2019-01-09T15:55:11.525Z,181.97
2019-01-09T15:57:56.563Z,185.90
2019-01-09T16:00:41.962Z,190.67
2019-01-09T16:03:27.140Z,214.65
2019-01-09T16:06:12.520Z,186.90
2019-01-09T16:08:57.861Z,191.30
2019-01-09T16:11:43.072Z,202.30
2019-01-09T16:14:27.809Z,199.70
2019-01-09T16:17:12.532Z,218.37
2019-01-09T16:19:58.194Z,231.53
2019-01-09T16:22:43.020Z,238.10
2019-01-09T16:25:28.740Z,224.23
2019-01-09T16:28:13.810Z,224.37
2019-01-09T16:31:03.178Z,209.30
2019-01-09T16:33:48.536Z,247.33
2019-01-09T16:36:33.739Z,217.23
2019-01-09T16:39:18.730Z,205.90
2019-01-09T16:42:03.592Z,222.17
2019-01-09T16:44:48.360Z,226.13
2019-01-09T16:47:33.671Z,207.20
2019-01-09T16:50:20.797Z,199.63
2019-01-09T16:53:05.524Z,210.13
2019-01-09T16:55:50.322Z,207.13
2019-01-09T16:58:35.449Z,197.73
2019-01-09T17:01:21.607Z,215.20
2019-01-09T17:04:06.653Z,186.83
2019-01-09T17:06:51.851Z,197.67
2019-01-09T17:09:37.259Z,186.57
2019-01-09T17:12:22.445Z,175.97
2019-01-09T17:15:10.367Z,189.80
2019-01-09T17:17:55.969Z,162.73
2019-01-09T17:20:40.659Z,177.47
2019-01-09T17:23:25.971Z,185.17
2019-01-09T17:26:11.601Z,176.20
2019-01-09T17:28:56.288Z,174.10
2019-01-09T17:31:41.353Z,179.57
2019-01-09T17:34:27.455Z,178.07
2019-01-09T17:37:13.023Z,248.67
2019-01-09T17:39:58.154Z,188.20
2019-01-09T17:42:42.981Z,197.83
2019-01-09T17:45:27.762Z,196.53
2019-01-09T17:48:12.590Z,192.57
2019-01-09T17:50:58.393Z,232.50
2019-01-09T17:53:44.083Z,205.10
2019-01-09T17:56:29.876Z,208.00
2019-01-09T17:59:15.100Z,190.17
2019-01-09T18:02:00.301Z,195.70
2019-01-09T18:04:45.002Z,182.07
2019-01-09T18:07:29.752Z,197.43
2019-01-09T18:10:20.118Z,193.40
2019-01-09T18:13:04.969Z,197.27
2019-01-09T18:15:50.233Z,213.97
2019-01-09T18:18:35.031Z,194.67
2019-01-09T18:21:20.202Z,192.87
2019-01-09T18:24:05.003Z,196.77
2019-01-09T18:26:50.210Z,190.17
2019-01-09T18:29:35.133Z,208.70
2019-01-09T18:32:24.226Z,189.70
2019-01-09T18:35:13.098Z,188.57
2019-01-09T18:38:15.902Z,191.67
2019-01-09T18:41:09.371Z,195.43
2019-01-09T18:44:08.088Z,185.40
2019-01-09T18:47:02.411Z,181.07
2019-01-09T18:50:12.538Z,172.93
2019-01-09T18:53:01.243Z,195.20
2019-01-09T18:55:46.452Z,189.07
2019-01-09T18:58:31.745Z,202.80
2019-01-09T19:01:16.877Z,211.93
2019-01-09T19:04:01.617Z,202.10
2019-01-09T19:06:46.896Z,212.93
2019-01-09T19:09:32.119Z,198.37
2019-01-09T19:12:17.036Z,199.40
2019-01-09T19:15:01.708Z,203.60
2019-01-09T19:17:46.510Z,191.10
2019-01-09T19:20:31.247Z,195.27
2019-01-09T19:23:16.366Z,217.00
2019-01-09T19:26:01.562Z,228.10
2019-01-09T19:28:48.707Z,204.33
2019-01-09T19:31:33.973Z,181.83
2019-01-09T19:34:19.387Z,202.73
2019-01-09T19:37:04.224Z,195.47
2019-01-09T19:39:50.000Z,218.40
2019-01-09T19:42:35.278Z,207.43
2019-01-09T19:45:20.556Z,203.77
2019-01-09T19:48:05.299Z,192.10
2019-01-09T19:50:50.621Z,183.70
2019-01-09T19:53:36.046Z,186.43
2019-01-09T19:56:21.317Z,186.97
2019-01-09T19:59:06.391Z,188.03
2019-01-09T20:01:51.724Z,185.03
2019-01-09T20:04:36.838Z,189.90
2019-01-09T20:07:21.940Z,194.87
2019-01-09T20:10:13.764Z,190.90
2019-01-09T20:12:58.839Z,184.43
2019-01-09T20:15:43.596Z,192.27
2019-01-09T20:18:28.739Z,176.53
2019-01-09T20:21:14.001Z,197.57
2019-01-09T20:23:59.267Z,187.67
2019-01-09T20:26:44.307Z,190.37
2019-01-09T20:29:29.381Z,179.27
2019-01-09T20:32:14.677Z,181.50
2019-01-09T20:34:59.493Z,399.07
2019-01-09T20:37:44.281Z,192.17
2019-01-09T20:40:29.517Z,193.70
2019-01-09T20:43:14.700Z,200.63
2019-01-09T20:45:59.963Z,206.73
2019-01-09T20:48:45.892Z,196.27
2019-01-09T20:51:31.174Z,206.00
2019-01-09T20:54:16.460Z,204.03
2019-01-09T20:57:01.525Z,193.90
2019-01-09T20:59:46.344Z,181.33
2019-01-09T21:02:31.327Z,179.53
2019-01-09T21:05:26.335Z,177.40
2019-01-09T21:08:11.193Z,176.30
2019-01-09T21:10:56.422Z,183.43
2019-01-09T21:13:41.767Z,176.47
2019-01-09T21:16:26.979Z,174.50
2019-01-09T21:19:12.425Z,268.70
2019-01-09T21:21:57.750Z,307.63
2019-01-09T21:24:42.952Z,205.97
2019-01-09T21:27:27.813Z,208.30
2019-01-09T21:30:16.333Z,187.63
2019-01-09T21:33:01.740Z,182.20
2019-01-09T21:35:46.868Z,204.00
2019-01-09T21:38:32.157Z,199.27
2019-01-09T21:41:17.464Z,185.40
2019-01-09T21:44:02.853Z,182.90
2019-01-09T21:46:48.033Z,187.87
2019-01-09T21:49:34.822Z,188.83
2019-01-09T21:52:20.884Z,197.33
2019-01-09T21:55:07.120Z,187.07
2019-01-09T21:57:53.945Z,192.43
2019-01-09T22:00:39.596Z,199.73
2019-01-09T22:03:25.163Z,191.60
2019-01-09T22:06:14.031Z,200.87
2019-01-09T22:09:00.880Z,203.40
2019-01-09T22:11:46.381Z,197.23
2019-01-09T22:14:31.641Z,382.53
2019-01-09T22:17:18.185Z,207.07
2019-01-09T22:20:07.635Z,201.83
2019-01-09T22:22:53.103Z,200.50
2019-01-09T22:25:38.963Z,199.87
2019-01-09T22:28:24.295Z,195.27
2019-01-09T22:31:09.277Z,189.13
2019-01-09T22:33:55.198Z,176.77
2019-01-09T22:36:40.483Z,195.60
2019-01-09T22:39:25.897Z,175.77
2019-01-09T22:42:11.901Z,183.37
2019-01-09T22:44:57.495Z,177.60
2019-01-09T22:47:42.732Z,174.47
2019-01-09T22:50:28.814Z,361.63
2019-01-09T22:53:14.403Z,305.87
2019-01-09T22:55:59.338Z,167.53
2019-01-09T22:58:44.548Z,179.90
2019-01-09T23:01:29.375Z,166.03
2019-01-09T23:04:14.699Z,149.90
2019-01-09T23:07:00.243Z,154.20
2019-01-09T23:09:45.566Z,143.63
2019-01-09T23:12:30.263Z,156.07
2019-01-09T23:15:15.063Z,153.33
2019-01-09T23:17:59.791Z,138.00
2019-01-09T23:20:44.891Z,135.10
2019-01-09T23:23:29.706Z,141.80
2019-01-09T23:26:15.075Z,127.80
2019-01-09T23:29:00.470Z,128.40
2019-01-09T23:31:45.568Z,126.03
2019-01-09T23:34:30.514Z,416.63
2019-01-09T23:37:15.578Z,156.27
2019-01-09T23:40:00.779Z,136.47
2019-01-09T23:42:45.669Z,133.27
2019-01-09T23:45:31.567Z,127.10
2019-01-09T23:48:16.591Z,120.53
2019-01-09T23:51:01.272Z,126.67
2019-01-09T23:53:46.120Z,122.47
2019-01-09T23:56:31.270Z,117.67
2019-01-09T23:59:16.087Z,121.10
